Terminal Aerodrome Forecast
Issued by NWS Twin Cities, MN

Home | Current Version | Previous Version | Graphics & Text | Print | Product List | Glossary On
Versions: 1 2 3 4 5 6 7 8 9 10 11 12 13 14
000
FTUS43 KMPX 282339
TAFEAU
TAF
KEAU 282339Z 2900/2924 36006KT P6SM BKN050
     FM290900 02005KT P6SM SCT030 BKN050
      TEMPO 2909/2912 5SM BR
     FM291500 04007KT P6SM SCT040=

USA.gov is the U.S. government's official web portal to all federal, state and local government web resources and services.